Terminal Aerodrome Forecast
Issued by NWS

Home | Current Version | Previous Version | Text Only | Print | Product List | Glossary On
Versions: 1 2 3 4 5 6 7 8 9 10 11 12 13 14 15 16 17 18 19 20 21 22 23 24 25 26
000
FTUS41 KALY 211100
TAFPSF
TAF
KPSF 211125Z 2112/2212 VRB02KT 6SM -SHSN BR SCT015 OVC025
      TEMPO 2112/2116 3SM -SHSN OVC015
     FM211600 35004KT 6SM -SHSN BR SCT015 OVC025
     FM211900 35004KT P6SM VCSH OVC025
     FM212300 00000KT P6SM OVC030=

USA.gov is the U.S. government's official web portal to all federal, state and local government web resources and services.